sensor_id;sensor_type;location;lat;lon;timestamp;temperature;humidity
14471;DHT22;7321;50.802;4.336;2024-01-10T00:00:15;-2.60;99.90
14471;DHT22;7321;50.802;4.336;2024-01-10T00:02:41;-2.70;99.90
14471;DHT22;7321;50.802;4.336;2024-01-10T00:05:07;-2.70;99.90
14471;DHT22;7321;50.802;4.336;2024-01-10T00:07:33;-2.60;99.90
14471;DHT22;7321;50.802;4.336;2024-01-10T00:09:59;-2.70;99.90
14471;DHT22;7321;50.802;4.336;2024-01-10T00:12:26;-2.60;99.90
14471;DHT22;7321;50.802;4.336;2024-01-10T00:14:52;-2.50;99.90
14471;DHT22;7321;50.802;4.336;2024-01-10T00:17:18;-2.50;99.90
14471;DHT22;7321;50.802;4.336;2024-01-10T00:19:44;-2.60;99.90
14471;DHT22;7321;50.802;4.336;2024-01-10T00:22:10;-2.60;99.90
14471;DHT22;7321;50.802;4.336;2024-01-10T00:24:35;-2.80;99.90
14471;DHT22;7321;50.802;4.336;2024-01-10T00:27:01;-2.70;99.90
14471;DHT22;7321;50.802;4.336;2024-01-10T00:29:27;-2.70;99.90
14471;DHT22;7321;50.802;4.336;2024-01-10T00:31:53;-2.70;99.90
14471;DHT22;7321;50.802;4.336;2024-01-10T00:34:19;-2.80;99.90
14471;DHT22;7321;50.802;4.336;2024-01-10T00:36:44;-2.90;99.90
14471;DHT22;7321;50.802;4.336;2024-01-10T00:39:10;-2.90;99.90
14471;DHT22;7321;50.802;4.336;2024-01-10T00:41:36;-2.90;99.90
14471;DHT22;7321;50.802;4.336;2024-01-10T00:44:02;-3.00;99.90
14471;DHT22;7321;50.802;4.336;2024-01-10T00:46:28;-2.90;99.90
14471;DHT22;7321;50.802;4.336;2024-01-10T00:48:54;-2.70;99.90
14471;DHT22;7321;50.802;4.336;2024-01-10T00:51:19;-2.70;99.90
14471;DHT22;7321;50.802;4.336;2024-01-10T00:53:45;-2.70;99.90
14471;DHT22;7321;50.802;4.336;2024-01-10T00:56:11;-2.80;99.90
14471;DHT22;7321;50.802;4.336;2024-01-10T00:58:37;-2.80;99.90
14471;DHT22;7321;50.802;4.336;2024-01-10T01:01:03;-3.00;99.90
14471;DHT22;7321;50.802;4.336;2024-01-10T01:03:29;-2.90;99.90
14471;DHT22;7321;50.802;4.336;2024-01-10T01:05:55;-2.90;99.90
14471;DHT22;7321;50.802;4.336;2024-01-10T01:08:20;-2.90;99.90
14471;DHT22;7321;50.802;4.336;2024-01-10T01:10:46;-3.00;99.90
14471;DHT22;7321;50.802;4.336;2024-01-10T01:13:12;-3.10;99.90
14471;DHT22;7321;50.802;4.336;2024-01-10T01:15:38;-3.00;99.90
14471;DHT22;7321;50.802;4.336;2024-01-10T01:18:04;-3.10;99.90
14471;DHT22;7321;50.802;4.336;2024-01-10T01:20:30;-3.00;99.90
14471;DHT22;7321;50.802;4.336;2024-01-10T01:22:55;-2.90;99.90
14471;DHT22;7321;50.802;4.336;2024-01-10T01:25:21;-3.00;99.90
14471;DHT22;7321;50.802;4.336;2024-01-10T01:27:47;-3.20;99.90
14471;DHT22;7321;50.802;4.336;2024-01-10T01:30:13;-3.10;99.90
14471;DHT22;7321;50.802;4.336;2024-01-10T01:32:38;-3.10;99.90
14471;DHT22;7321;50.802;4.336;2024-01-10T01:35:05;-3.10;99.90
14471;DHT22;7321;50.802;4.336;2024-01-10T01:37:30;-3.20;99.90
14471;DHT22;7321;50.802;4.336;2024-01-10T01:39:56;-3.30;99.90
14471;DHT22;7321;50.802;4.336;2024-01-10T01:42:22;-3.30;99.90
14471;DHT22;7321;50.802;4.336;2024-01-10T01:44:48;-3.30;99.90
14471;DHT22;7321;50.802;4.336;2024-01-10T01:47:14;-3.20;99.90
14471;DHT22;7321;50.802;4.336;2024-01-10T01:49:42;-3.10;99.90
14471;DHT22;7321;50.802;4.336;2024-01-10T01:52:09;-3.20;99.90
14471;DHT22;7321;50.802;4.336;2024-01-10T01:54:35;-3.10;99.90
14471;DHT22;7321;50.802;4.336;2024-01-10T01:57:01;-3.00;99.90
14471;DHT22;7321;50.802;4.336;2024-01-10T01:59:27;-3.20;99.90
14471;DHT22;7321;50.802;4.336;2024-01-10T02:01:55;-3.30;99.90
14471;DHT22;7321;50.802;4.336;2024-01-10T02:04:22;-3.30;99.90
14471;DHT22;7321;50.802;4.336;2024-01-10T02:06:48;-3.40;99.90
14471;DHT22;7321;50.802;4.336;2024-01-10T02:09:14;-3.40;99.90
14471;DHT22;7321;50.802;4.336;2024-01-10T02:11:40;-3.40;99.90
14471;DHT22;7321;50.802;4.336;2024-01-10T02:14:06;-3.30;99.90
14471;DHT22;7321;50.802;4.336;2024-01-10T02:16:32;-3.20;99.90
14471;DHT22;7321;50.802;4.336;2024-01-10T02:18:58;-3.30;99.90
14471;DHT22;7321;50.802;4.336;2024-01-10T02:21:24;-3.20;99.90
14471;DHT22;7321;50.802;4.336;2024-01-10T02:23:50;-3.20;99.90
14471;DHT22;7321;50.802;4.336;2024-01-10T02:26:16;-3.10;99.90
14471;DHT22;7321;50.802;4.336;2024-01-10T02:28:41;-3.30;99.90
14471;DHT22;7321;50.802;4.336;2024-01-10T02:31:07;-3.40;99.90
14471;DHT22;7321;50.802;4.336;2024-01-10T02:33:34;-3.20;99.90
14471;DHT22;7321;50.802;4.336;2024-01-10T02:36:00;-3.20;99.90
14471;DHT22;7321;50.802;4.336;2024-01-10T02:38:25;-3.20;99.90
14471;DHT22;7321;50.802;4.336;2024-01-10T02:40:52;-3.20;99.90
14471;DHT22;7321;50.802;4.336;2024-01-10T02:43:19;-3.40;99.90
14471;DHT22;7321;50.802;4.336;2024-01-10T02:45:44;-3.30;99.90
14471;DHT22;7321;50.802;4.336;2024-01-10T02:48:10;-3.20;99.90
14471;DHT22;7321;50.802;4.336;2024-01-10T02:50:36;-3.00;99.90
14471;DHT22;7321;50.802;4.336;2024-01-10T02:53:04;-3.10;99.90
14471;DHT22;7321;50.802;4.336;2024-01-10T02:55:30;-3.20;99.90
14471;DHT22;7321;50.802;4.336;2024-01-10T02:57:55;-3.40;99.90
14471;DHT22;7321;50.802;4.336;2024-01-10T03:00:21;-3.50;99.90
14471;DHT22;7321;50.802;4.336;2024-01-10T03:02:47;-3.50;99.90
14471;DHT22;7321;50.802;4.336;2024-01-10T03:05:13;-3.50;99.90
14471;DHT22;7321;50.802;4.336;2024-01-10T03:07:39;-3.40;99.90
14471;DHT22;7321;50.802;4.336;2024-01-10T03:10:05;-3.30;99.90
14471;DHT22;7321;50.802;4.336;2024-01-10T03:12:31;-3.30;99.90
14471;DHT22;7321;50.802;4.336;2024-01-10T03:14:57;-3.30;99.90
14471;DHT22;7321;50.802;4.336;2024-01-10T03:17:23;-3.40;99.90
14471;DHT22;7321;50.802;4.336;2024-01-10T03:19:49;-3.40;99.90
14471;DHT22;7321;50.802;4.336;2024-01-10T03:22:15;-3.20;99.90
14471;DHT22;7321;50.802;4.336;2024-01-10T03:24:40;-3.20;99.90
14471;DHT22;7321;50.802;4.336;2024-01-10T03:27:06;-3.50;99.90
14471;DHT22;7321;50.802;4.336;2024-01-10T03:29:32;-3.50;99.90
14471;DHT22;7321;50.802;4.336;2024-01-10T03:31:58;-3.40;99.90
14471;DHT22;7321;50.802;4.336;2024-01-10T03:34:24;-3.40;99.90
14471;DHT22;7321;50.802;4.336;2024-01-10T03:36:49;-3.40;99.90
14471;DHT22;7321;50.802;4.336;2024-01-10T03:39:15;-3.40;99.90
14471;DHT22;7321;50.802;4.336;2024-01-10T03:41:41;-3.30;99.90
14471;DHT22;7321;50.802;4.336;2024-01-10T03:44:06;-3.40;99.90
14471;DHT22;7321;50.802;4.336;2024-01-10T03:46:32;-3.30;99.90
14471;DHT22;7321;50.802;4.336;2024-01-10T03:48:58;-3.30;99.90
14471;DHT22;7321;50.802;4.336;2024-01-10T03:51:24;-3.10;99.90
14471;DHT22;7321;50.802;4.336;2024-01-10T03:53:51;-3.30;99.90
14471;DHT22;7321;50.802;4.336;2024-01-10T03:56:17;-3.20;99.90
14471;DHT22;7321;50.802;4.336;2024-01-10T03:58:43;-3.20;99.90
14471;DHT22;7321;50.802;4.336;2024-01-10T04:01:09;-3.20;99.90
14471;DHT22;7321;50.802;4.336;2024-01-10T04:03:35;-3.10;99.90
14471;DHT22;7321;50.802;4.336;2024-01-10T04:06:01;-3.30;99.90
14471;DHT22;7321;50.802;4.336;2024-01-10T04:08:27;-3.30;99.90
14471;DHT22;7321;50.802;4.336;2024-01-10T04:10:53;-3.20;99.90
14471;DHT22;7321;50.802;4.336;2024-01-10T04:13:19;-3.10;99.90
14471;DHT22;7321;50.802;4.336;2024-01-10T04:15:45;-3.00;99.90
14471;DHT22;7321;50.802;4.336;2024-01-10T04:18:11;-3.20;99.90
14471;DHT22;7321;50.802;4.336;2024-01-10T04:20:36;-3.30;99.90
14471;DHT22;7321;50.802;4.336;2024-01-10T04:23:02;-3.40;99.90
14471;DHT22;7321;50.802;4.336;2024-01-10T04:25:28;-3.40;99.90
14471;DHT22;7321;50.802;4.336;2024-01-10T04:27:54;-3.30;99.90
14471;DHT22;7321;50.802;4.336;2024-01-10T04:30:21;-3.40;99.90
14471;DHT22;7321;50.802;4.336;2024-01-10T04:32:46;-3.60;99.90
14471;DHT22;7321;50.802;4.336;2024-01-10T04:35:12;-3.60;99.90
14471;DHT22;7321;50.802;4.336;2024-01-10T04:37:38;-3.50;99.90
14471;DHT22;7321;50.802;4.336;2024-01-10T04:40:05;-3.40;99.90
14471;DHT22;7321;50.802;4.336;2024-01-10T04:42:31;-3.30;99.90
14471;DHT22;7321;50.802;4.336;2024-01-10T04:44:57;-3.20;99.90
14471;DHT22;7321;50.802;4.336;2024-01-10T04:47:23;-3.00;99.90
14471;DHT22;7321;50.802;4.336;2024-01-10T04:49:48;-3.10;99.90
14471;DHT22;7321;50.802;4.336;2024-01-10T04:52:14;-3.20;99.90
14471;DHT22;7321;50.802;4.336;2024-01-10T04:54:40;-3.20;99.90
14471;DHT22;7321;50.802;4.336;2024-01-10T04:57:06;-3.20;99.90
14471;DHT22;7321;50.802;4.336;2024-01-10T04:59:33;-3.40;99.90
14471;DHT22;7321;50.802;4.336;2024-01-10T05:01:59;-3.40;99.90
14471;DHT22;7321;50.802;4.336;2024-01-10T05:04:25;-3.30;99.90
14471;DHT22;7321;50.802;4.336;2024-01-10T05:06:51;-3.30;99.90
14471;DHT22;7321;50.802;4.336;2024-01-10T05:09:17;-3.40;99.90
14471;DHT22;7321;50.802;4.336;2024-01-10T05:11:43;-3.30;99.90
14471;DHT22;7321;50.802;4.336;2024-01-10T05:14:12;-3.60;99.90
14471;DHT22;7321;50.802;4.336;2024-01-10T05:16:38;-3.50;99.90
14471;DHT22;7321;50.802;4.336;2024-01-10T05:19:04;-3.60;99.90
14471;DHT22;7321;50.802;4.336;2024-01-10T05:21:31;-3.60;99.90
14471;DHT22;7321;50.802;4.336;2024-01-10T05:23:57;-3.60;99.90
14471;DHT22;7321;50.802;4.336;2024-01-10T05:26:23;-3.70;99.90
14471;DHT22;7321;50.802;4.336;2024-01-10T05:28:49;-3.70;99.90
14471;DHT22;7321;50.802;4.336;2024-01-10T05:31:15;-3.70;99.90
14471;DHT22;7321;50.802;4.336;2024-01-10T05:33:41;-3.60;99.90
14471;DHT22;7321;50.802;4.336;2024-01-10T05:36:09;-3.50;99.90
14471;DHT22;7321;50.802;4.336;2024-01-10T05:38:38;-3.70;99.90
14471;DHT22;7321;50.802;4.336;2024-01-10T05:41:05;-3.70;99.90
14471;DHT22;7321;50.802;4.336;2024-01-10T05:43:31;-3.60;99.90
14471;DHT22;7321;50.802;4.336;2024-01-10T05:45:57;-3.60;99.90
14471;DHT22;7321;50.802;4.336;2024-01-10T05:48:24;-3.60;99.90
14471;DHT22;7321;50.802;4.336;2024-01-10T05:50:49;-3.70;99.90
14471;DHT22;7321;50.802;4.336;2024-01-10T05:53:17;-3.70;99.90
14471;DHT22;7321;50.802;4.336;2024-01-10T05:55:45;-3.60;99.90
14471;DHT22;7321;50.802;4.336;2024-01-10T05:58:11;-3.70;99.90
14471;DHT22;7321;50.802;4.336;2024-01-10T06:00:37;-3.60;99.90
14471;DHT22;7321;50.802;4.336;2024-01-10T06:03:04;-3.70;99.90
14471;DHT22;7321;50.802;4.336;2024-01-10T06:05:29;-3.80;99.90
14471;DHT22;7321;50.802;4.336;2024-01-10T06:07:57;-3.90;99.90
14471;DHT22;7321;50.802;4.336;2024-01-10T06:10:23;-4.10;99.90
14471;DHT22;7321;50.802;4.336;2024-01-10T06:12:48;-4.10;99.90
14471;DHT22;7321;50.802;4.336;2024-01-10T06:15:14;-4.00;99.90
14471;DHT22;7321;50.802;4.336;2024-01-10T06:17:40;-4.00;99.90
14471;DHT22;7321;50.802;4.336;2024-01-10T06:20:09;-3.90;99.90
14471;DHT22;7321;50.802;4.336;2024-01-10T06:22:35;-3.90;99.90
14471;DHT22;7321;50.802;4.336;2024-01-10T06:25:00;-3.90;99.90
14471;DHT22;7321;50.802;4.336;2024-01-10T06:27:26;-3.80;99.90
14471;DHT22;7321;50.802;4.336;2024-01-10T06:29:52;-3.60;99.90
14471;DHT22;7321;50.802;4.336;2024-01-10T06:32:18;-3.50;99.90
14471;DHT22;7321;50.802;4.336;2024-01-10T06:34:43;-3.40;99.90
14471;DHT22;7321;50.802;4.336;2024-01-10T06:37:10;-3.50;99.90
14471;DHT22;7321;50.802;4.336;2024-01-10T06:39:35;-3.30;99.90
14471;DHT22;7321;50.802;4.336;2024-01-10T06:42:01;-3.20;99.90
14471;DHT22;7321;50.802;4.336;2024-01-10T06:44:30;-3.40;99.90
14471;DHT22;7321;50.802;4.336;2024-01-10T06:46:55;-3.50;99.90
14471;DHT22;7321;50.802;4.336;2024-01-10T06:49:21;-3.60;99.90
14471;DHT22;7321;50.802;4.336;2024-01-10T06:51:47;-3.90;99.90
14471;DHT22;7321;50.802;4.336;2024-01-10T06:54:13;-3.80;99.90
14471;DHT22;7321;50.802;4.336;2024-01-10T06:56:40;-3.80;99.90
14471;DHT22;7321;50.802;4.336;2024-01-10T06:59:06;-3.90;99.90
14471;DHT22;7321;50.802;4.336;2024-01-10T07:01:32;-3.80;99.90
14471;DHT22;7321;50.802;4.336;2024-01-10T07:03:58;-3.80;99.90
14471;DHT22;7321;50.802;4.336;2024-01-10T07:06:24;-3.70;99.90
14471;DHT22;7321;50.802;4.336;2024-01-10T07:08:50;-3.70;99.90
14471;DHT22;7321;50.802;4.336;2024-01-10T07:11:17;-3.80;99.90
14471;DHT22;7321;50.802;4.336;2024-01-10T07:13:43;-3.90;99.90
14471;DHT22;7321;50.802;4.336;2024-01-10T07:16:10;-3.70;99.90
14471;DHT22;7321;50.802;4.336;2024-01-10T07:18:36;-3.70;99.90
14471;DHT22;7321;50.802;4.336;2024-01-10T07:21:02;-3.60;99.90
14471;DHT22;7321;50.802;4.336;2024-01-10T07:23:28;-3.50;99.90
14471;DHT22;7321;50.802;4.336;2024-01-10T07:25:54;-3.40;99.90
14471;DHT22;7321;50.802;4.336;2024-01-10T07:28:20;-3.20;99.90
14471;DHT22;7321;50.802;4.336;2024-01-10T07:30:46;-3.40;99.90
14471;DHT22;7321;50.802;4.336;2024-01-10T07:33:12;-3.40;99.90
14471;DHT22;7321;50.802;4.336;2024-01-10T07:35:37;-3.60;99.90
14471;DHT22;7321;50.802;4.336;2024-01-10T07:38:05;-3.70;99.90
14471;DHT22;7321;50.802;4.336;2024-01-10T07:40:34;-3.80;99.90
14471;DHT22;7321;50.802;4.336;2024-01-10T07:43:00;-3.90;99.90
14471;DHT22;7321;50.802;4.336;2024-01-10T07:45:26;-3.80;99.90
14471;DHT22;7321;50.802;4.336;2024-01-10T07:47:52;-3.90;99.90
14471;DHT22;7321;50.802;4.336;2024-01-10T07:50:18;-3.70;99.90
14471;DHT22;7321;50.802;4.336;2024-01-10T07:52:45;-3.50;99.90
14471;DHT22;7321;50.802;4.336;2024-01-10T07:55:11;-3.50;99.90
14471;DHT22;7321;50.802;4.336;2024-01-10T07:57:37;-3.40;99.90
14471;DHT22;7321;50.802;4.336;2024-01-10T08:00:10;-3.70;99.90
14471;DHT22;7321;50.802;4.336;2024-01-10T08:02:39;-3.60;99.90
14471;DHT22;7321;50.802;4.336;2024-01-10T08:05:06;-3.70;99.90
14471;DHT22;7321;50.802;4.336;2024-01-10T08:07:36;-3.50;99.90
14471;DHT22;7321;50.802;4.336;2024-01-10T08:10:06;-3.30;99.90
14471;DHT22;7321;50.802;4.336;2024-01-10T08:12:32;-3.30;99.90
14471;DHT22;7321;50.802;4.336;2024-01-10T08:14:57;-3.50;99.90
14471;DHT22;7321;50.802;4.336;2024-01-10T08:17:23;-3.40;99.90
14471;DHT22;7321;50.802;4.336;2024-01-10T08:19:49;-3.60;99.90
14471;DHT22;7321;50.802;4.336;2024-01-10T08:22:15;-3.40;99.90
14471;DHT22;7321;50.802;4.336;2024-01-10T08:24:41;-3.40;99.90
14471;DHT22;7321;50.802;4.336;2024-01-10T08:27:07;-3.40;99.90
14471;DHT22;7321;50.802;4.336;2024-01-10T08:29:33;-3.40;99.90
14471;DHT22;7321;50.802;4.336;2024-01-10T08:31:59;-3.50;99.90
14471;DHT22;7321;50.802;4.336;2024-01-10T08:34:25;-3.20;99.90
14471;DHT22;7321;50.802;4.336;2024-01-10T08:36:52;-3.00;99.90
14471;DHT22;7321;50.802;4.336;2024-01-10T08:39:18;-3.10;99.90
14471;DHT22;7321;50.802;4.336;2024-01-10T08:41:44;-3.10;99.90
14471;DHT22;7321;50.802;4.336;2024-01-10T08:44:13;-3.20;99.90
14471;DHT22;7321;50.802;4.336;2024-01-10T08:46:39;-3.10;99.90
14471;DHT22;7321;50.802;4.336;2024-01-10T08:49:05;-3.00;99.90
14471;DHT22;7321;50.802;4.336;2024-01-10T08:51:31;-3.00;99.90
14471;DHT22;7321;50.802;4.336;2024-01-10T08:53:57;-2.80;99.90
14471;DHT22;7321;50.802;4.336;2024-01-10T08:56:23;-2.80;99.90
14471;DHT22;7321;50.802;4.336;2024-01-10T08:58:49;-2.70;99.90
14471;DHT22;7321;50.802;4.336;2024-01-10T09:01:15;-2.80;99.90
14471;DHT22;7321;50.802;4.336;2024-01-10T09:03:41;-3.00;99.90
14471;DHT22;7321;50.802;4.336;2024-01-10T09:06:07;-3.10;99.90
14471;DHT22;7321;50.802;4.336;2024-01-10T09:08:34;-2.90;99.90
14471;DHT22;7321;50.802;4.336;2024-01-10T09:11:00;-2.60;99.90
14471;DHT22;7321;50.802;4.336;2024-01-10T09:13:25;-2.70;99.90
14471;DHT22;7321;50.802;4.336;2024-01-10T09:15:51;-2.90;99.90
14471;DHT22;7321;50.802;4.336;2024-01-10T09:18:17;-3.00;99.90
14471;DHT22;7321;50.802;4.336;2024-01-10T09:20:43;-2.70;99.90
14471;DHT22;7321;50.802;4.336;2024-01-10T09:23:09;-2.50;99.90
14471;DHT22;7321;50.802;4.336;2024-01-10T09:25:36;-2.30;99.90
14471;DHT22;7321;50.802;4.336;2024-01-10T09:28:03;-2.30;99.90
14471;DHT22;7321;50.802;4.336;2024-01-10T09:30:29;-2.50;99.90
14471;DHT22;7321;50.802;4.336;2024-01-10T09:32:55;-2.40;99.90
14471;DHT22;7321;50.802;4.336;2024-01-10T09:35:22;-2.40;99.90
14471;DHT22;7321;50.802;4.336;2024-01-10T09:37:48;-2.30;99.90
14471;DHT22;7321;50.802;4.336;2024-01-10T09:40:16;-2.40;99.90
14471;DHT22;7321;50.802;4.336;2024-01-10T09:42:49;-2.60;99.90
14471;DHT22;7321;50.802;4.336;2024-01-10T09:45:17;-2.70;99.90
14471;DHT22;7321;50.802;4.336;2024-01-10T09:47:48;-2.70;99.90
14471;DHT22;7321;50.802;4.336;2024-01-10T09:50:15;-2.70;99.90
14471;DHT22;7321;50.802;4.336;2024-01-10T09:53:07;-2.80;99.90
14471;DHT22;7321;50.802;4.336;2024-01-10T09:55:37;-2.50;99.90
14471;DHT22;7321;50.802;4.336;2024-01-10T09:58:05;-2.30;99.90
14471;DHT22;7321;50.802;4.336;2024-01-10T10:00:33;-2.30;99.90
14471;DHT22;7321;50.802;4.336;2024-01-10T10:03:02;-2.40;99.90
14471;DHT22;7321;50.802;4.336;2024-01-10T10:05:30;-2.40;99.90
14471;DHT22;7321;50.802;4.336;2024-01-10T10:07:57;-2.20;99.90
14471;DHT22;7321;50.802;4.336;2024-01-10T10:10:24;-2.10;99.90
14471;DHT22;7321;50.802;4.336;2024-01-10T10:12:52;-2.20;99.90
14471;DHT22;7321;50.802;4.336;2024-01-10T10:15:21;-2.40;99.90
14471;DHT22;7321;50.802;4.336;2024-01-10T10:17:49;-2.60;99.90
14471;DHT22;7321;50.802;4.336;2024-01-10T10:20:21;-2.30;99.90
14471;DHT22;7321;50.802;4.336;2024-01-10T10:27:57;-2.20;99.90
14471;DHT22;7321;50.802;4.336;2024-01-10T10:30:23;-2.20;99.90
14471;DHT22;7321;50.802;4.336;2024-01-10T10:32:49;-2.20;99.90
14471;DHT22;7321;50.802;4.336;2024-01-10T10:35:16;-1.80;99.90
14471;DHT22;7321;50.802;4.336;2024-01-10T10:37:43;-1.90;99.90
14471;DHT22;7321;50.802;4.336;2024-01-10T10:40:09;-1.80;99.90
14471;DHT22;7321;50.802;4.336;2024-01-10T10:42:40;-1.70;99.90
14471;DHT22;7321;50.802;4.336;2024-01-10T10:45:09;-1.60;99.90
14471;DHT22;7321;50.802;4.336;2024-01-10T10:47:41;-1.50;99.90
14471;DHT22;7321;50.802;4.336;2024-01-10T10:50:12;-1.40;99.90
14471;DHT22;7321;50.802;4.336;2024-01-10T10:52:44;-1.40;99.90
14471;DHT22;7321;50.802;4.336;2024-01-10T10:55:13;-1.30;99.90
14471;DHT22;7321;50.802;4.336;2024-01-10T10:57:41;-1.20;99.90
14471;DHT22;7321;50.802;4.336;2024-01-10T11:00:08;-1.20;99.90
14471;DHT22;7321;50.802;4.336;2024-01-10T11:02:37;-1.30;99.90
14471;DHT22;7321;50.802;4.336;2024-01-10T11:05:04;-1.30;99.90
14471;DHT22;7321;50.802;4.336;2024-01-10T11:07:30;-1.30;99.90
14471;DHT22;7321;50.802;4.336;2024-01-10T11:09:57;-1.30;99.90
14471;DHT22;7321;50.802;4.336;2024-01-10T11:26:03;-1.20;99.90
14471;DHT22;7321;50.802;4.336;2024-01-10T11:28:32;-1.40;99.90
14471;DHT22;7321;50.802;4.336;2024-01-10T11:30:59;-1.40;99.90
14471;DHT22;7321;50.802;4.336;2024-01-10T11:33:30;-1.40;99.90
14471;DHT22;7321;50.802;4.336;2024-01-10T11:36:16;-1.20;99.90
14471;DHT22;7321;50.802;4.336;2024-01-10T11:39:03;-1.40;99.90
14471;DHT22;7321;50.802;4.336;2024-01-10T11:41:30;-1.40;99.90
14471;DHT22;7321;50.802;4.336;2024-01-10T11:46:49;-1.20;99.90
14471;DHT22;7321;50.802;4.336;2024-01-10T11:49:17;-1.10;99.90
14471;DHT22;7321;50.802;4.336;2024-01-10T11:51:49;-1.00;99.90
14471;DHT22;7321;50.802;4.336;2024-01-10T11:54:34;-1.00;99.90
14471;DHT22;7321;50.802;4.336;2024-01-10T11:57:01;-0.90;99.90
14471;DHT22;7321;50.802;4.336;2024-01-10T11:59:27;-1.00;99.90
14471;DHT22;7321;50.802;4.336;2024-01-10T12:01:54;-0.90;99.90
14471;DHT22;7321;50.802;4.336;2024-01-10T12:04:20;-0.90;99.90
14471;DHT22;7321;50.802;4.336;2024-01-10T12:06:47;-0.90;99.90
14471;DHT22;7321;50.802;4.336;2024-01-10T12:09:13;-0.70;99.90
14471;DHT22;7321;50.802;4.336;2024-01-10T12:11:40;-0.60;99.90
14471;DHT22;7321;50.802;4.336;2024-01-10T12:14:08;-0.60;99.90
14471;DHT22;7321;50.802;4.336;2024-01-10T12:16:34;-0.60;99.90
14471;DHT22;7321;50.802;4.336;2024-01-10T12:19:00;-0.50;99.90
14471;DHT22;7321;50.802;4.336;2024-01-10T12:21:26;-0.60;99.90
14471;DHT22;7321;50.802;4.336;2024-01-10T12:23:52;-0.60;99.90
14471;DHT22;7321;50.802;4.336;2024-01-10T12:26:18;-0.40;99.90
14471;DHT22;7321;50.802;4.336;2024-01-10T12:28:54;-0.50;99.90
14471;DHT22;7321;50.802;4.336;2024-01-10T12:31:21;-0.50;99.90
14471;DHT22;7321;50.802;4.336;2024-01-10T12:33:51;-0.30;99.90
14471;DHT22;7321;50.802;4.336;2024-01-10T12:36:18;-0.10;99.90
14471;DHT22;7321;50.802;4.336;2024-01-10T12:38:45;-0.10;99.90
14471;DHT22;7321;50.802;4.336;2024-01-10T12:41:11;-0.30;99.90
14471;DHT22;7321;50.802;4.336;2024-01-10T12:43:37;-0.30;99.90
14471;DHT22;7321;50.802;4.336;2024-01-10T12:46:08;-0.10;99.90
14471;DHT22;7321;50.802;4.336;2024-01-10T12:48:37;0.00;99.90
14471;DHT22;7321;50.802;4.336;2024-01-10T12:51:10;0.00;99.90
14471;DHT22;7321;50.802;4.336;2024-01-10T12:53:43;0.20;99.90
14471;DHT22;7321;50.802;4.336;2024-01-10T12:56:10;0.20;99.90
14471;DHT22;7321;50.802;4.336;2024-01-10T12:58:40;0.20;99.90
14471;DHT22;7321;50.802;4.336;2024-01-10T13:01:09;0.10;99.90
14471;DHT22;7321;50.802;4.336;2024-01-10T13:03:36;0.20;99.90
14471;DHT22;7321;50.802;4.336;2024-01-10T13:06:02;0.00;99.90
14471;DHT22;7321;50.802;4.336;2024-01-10T13:08:28;-0.10;99.90
14471;DHT22;7321;50.802;4.336;2024-01-10T13:10:57;-0.10;99.90
14471;DHT22;7321;50.802;4.336;2024-01-10T13:13:23;-0.20;99.90
14471;DHT22;7321;50.802;4.336;2024-01-10T13:15:48;-0.20;99.90
14471;DHT22;7321;50.802;4.336;2024-01-10T13:18:14;-0.10;99.90
14471;DHT22;7321;50.802;4.336;2024-01-10T13:20:44;0.10;99.90
14471;DHT22;7321;50.802;4.336;2024-01-10T13:23:10;0.10;99.90
14471;DHT22;7321;50.802;4.336;2024-01-10T13:25:36;0.10;99.90
14471;DHT22;7321;50.802;4.336;2024-01-10T13:28:05;0.20;99.90
14471;DHT22;7321;50.802;4.336;2024-01-10T13:30:31;0.20;99.90
14471;DHT22;7321;50.802;4.336;2024-01-10T13:32:57;0.00;99.90
14471;DHT22;7321;50.802;4.336;2024-01-10T13:35:24;-0.10;99.90
14471;DHT22;7321;50.802;4.336;2024-01-10T13:37:50;0.10;99.90
14471;DHT22;7321;50.802;4.336;2024-01-10T13:40:15;0.40;99.90
14471;DHT22;7321;50.802;4.336;2024-01-10T13:42:42;0.60;99.90
14471;DHT22;7321;50.802;4.336;2024-01-10T13:45:09;0.40;99.90
14471;DHT22;7321;50.802;4.336;2024-01-10T13:47:39;0.30;99.90
14471;DHT22;7321;50.802;4.336;2024-01-10T13:50:06;0.20;99.90
14471;DHT22;7321;50.802;4.336;2024-01-10T13:52:32;0.30;99.90
14471;DHT22;7321;50.802;4.336;2024-01-10T13:55:02;0.60;99.90
14471;DHT22;7321;50.802;4.336;2024-01-10T13:57:30;0.70;99.90
14471;DHT22;7321;50.802;4.336;2024-01-10T13:59:58;0.80;99.90
14471;DHT22;7321;50.802;4.336;2024-01-10T14:02:24;0.80;99.90
14471;DHT22;7321;50.802;4.336;2024-01-10T14:04:51;0.90;99.90
14471;DHT22;7321;50.802;4.336;2024-01-10T14:07:17;1.00;99.90
14471;DHT22;7321;50.802;4.336;2024-01-10T14:09:46;1.00;99.90
14471;DHT22;7321;50.802;4.336;2024-01-10T14:12:12;0.80;99.90
14471;DHT22;7321;50.802;4.336;2024-01-10T14:14:38;0.80;99.90
14471;DHT22;7321;50.802;4.336;2024-01-10T14:17:05;0.80;99.90
14471;DHT22;7321;50.802;4.336;2024-01-10T14:19:31;0.80;99.90
14471;DHT22;7321;50.802;4.336;2024-01-10T14:21:58;0.70;99.90
14471;DHT22;7321;50.802;4.336;2024-01-10T14:24:25;0.70;99.90
14471;DHT22;7321;50.802;4.336;2024-01-10T14:26:51;0.80;99.90
14471;DHT22;7321;50.802;4.336;2024-01-10T14:29:17;0.70;99.90
14471;DHT22;7321;50.802;4.336;2024-01-10T14:31:43;0.70;99.90
14471;DHT22;7321;50.802;4.336;2024-01-10T14:34:08;0.60;99.90
14471;DHT22;7321;50.802;4.336;2024-01-10T14:36:40;0.70;99.90
14471;DHT22;7321;50.802;4.336;2024-01-10T14:39:08;0.70;99.90
14471;DHT22;7321;50.802;4.336;2024-01-10T14:41:33;0.90;99.90
14471;DHT22;7321;50.802;4.336;2024-01-10T14:44:05;1.10;99.90
14471;DHT22;7321;50.802;4.336;2024-01-10T14:46:31;1.10;99.90
14471;DHT22;7321;50.802;4.336;2024-01-10T14:48:56;1.10;99.90
14471;DHT22;7321;50.802;4.336;2024-01-10T14:51:22;1.10;99.90
14471;DHT22;7321;50.802;4.336;2024-01-10T14:53:49;1.10;99.90
14471;DHT22;7321;50.802;4.336;2024-01-10T14:56:17;1.00;99.90
14471;DHT22;7321;50.802;4.336;2024-01-10T14:58:43;0.90;99.90
14471;DHT22;7321;50.802;4.336;2024-01-10T15:01:09;0.80;99.90
14471;DHT22;7321;50.802;4.336;2024-01-10T15:03:36;0.90;99.90
14471;DHT22;7321;50.802;4.336;2024-01-10T15:06:05;0.80;99.90
14471;DHT22;7321;50.802;4.336;2024-01-10T15:08:32;0.70;99.90
14471;DHT22;7321;50.802;4.336;2024-01-10T15:11:00;0.70;99.90
14471;DHT22;7321;50.802;4.336;2024-01-10T15:13:25;0.70;99.90
14471;DHT22;7321;50.802;4.336;2024-01-10T15:15:54;0.80;99.90
14471;DHT22;7321;50.802;4.336;2024-01-10T15:18:20;0.90;99.90
14471;DHT22;7321;50.802;4.336;2024-01-10T15:20:46;0.90;99.90
14471;DHT22;7321;50.802;4.336;2024-01-10T15:23:12;0.90;99.90
14471;DHT22;7321;50.802;4.336;2024-01-10T15:25:38;1.00;99.90
14471;DHT22;7321;50.802;4.336;2024-01-10T15:28:05;0.80;99.90
14471;DHT22;7321;50.802;4.336;2024-01-10T15:30:30;0.80;99.90
14471;DHT22;7321;50.802;4.336;2024-01-10T15:32:59;0.90;99.90
14471;DHT22;7321;50.802;4.336;2024-01-10T15:35:25;0.70;99.90
14471;DHT22;7321;50.802;4.336;2024-01-10T15:37:51;0.70;99.90
14471;DHT22;7321;50.802;4.336;2024-01-10T15:40:18;0.70;99.90
14471;DHT22;7321;50.802;4.336;2024-01-10T15:42:44;0.60;99.90
14471;DHT22;7321;50.802;4.336;2024-01-10T15:45:14;0.60;99.90
14471;DHT22;7321;50.802;4.336;2024-01-10T15:47:40;0.60;99.90
14471;DHT22;7321;50.802;4.336;2024-01-10T15:50:07;0.70;99.90
14471;DHT22;7321;50.802;4.336;2024-01-10T15:52:36;0.60;99.90
14471;DHT22;7321;50.802;4.336;2024-01-10T15:55:04;0.80;99.90
14471;DHT22;7321;50.802;4.336;2024-01-10T15:57:30;1.10;99.90
14471;DHT22;7321;50.802;4.336;2024-01-10T15:59:56;0.80;99.90
14471;DHT22;7321;50.802;4.336;2024-01-10T16:02:25;0.90;99.90
14471;DHT22;7321;50.802;4.336;2024-01-10T16:04:51;0.80;99.90
14471;DHT22;7321;50.802;4.336;2024-01-10T16:07:18;0.60;99.90